LGZALGKR

Guest
Details From LGZA - Dionysios_Solomos
To LGKR - IOANNIS KAPODISTRIAS INTL
Flight Number -
Tags decoded
Created
Modified
Stats Distance 120 nm / 222 km
Max Altitude 0 ft / 0 m
Waypoints 2
Social Downloads 3
Likes 0
Share VATSIM

Download

Looking for another format? Having issues loading an existing format? Contact us
Advertisement - Login to hide

Notes

Requested: LGZA OSDES OY302 SOTEG A14 MALED LGKR Unmatched points: OSDES OY302 SOTEG A14 MALED

Route

LGZA LGKR

ID Type Via Altitude (ft/m) Position (lat/lon) Dist (leg/tot) Name
O LGZA APT - 0 / 0 37.75123 / 20.88411 - / 0 nm Dionysios_Solomos
O LGKR APT - 0 / 0 39.60178 / 19.91191 120 / 120 nm IOANNIS KAPODISTRIAS INTL

Altitude Profile

Advertisement - Login to hide

LGZA

Details ICAO LGZA (ZTH)
Name Zakynthos Dionysios Solomos
Region Greece
Timezone Europe/Athens (UTC+3.0)
Stats Elevation 14 ft / 4 m (AMSL)
Location 37.751100° 20.884200°
Runways 1
Magnetic Variation 4.154° E

METAR

LGZA 170850Z 03004KT 9999 FEW025 22/15 Q1017

Decode

TAF

Not found

Departure Runways

ID Width Length Bearing (true/mag) Surface Threshold Overrun Markings Lighting
16 148 ft / 45 m 7,338 ft / 2,237 m 163.54° / 159.39° ASPHALT 650 ft / 198 m 207 ft / 63 m PREC-APP EDGE THRESHOLD REIL-OMNI
34 148 ft / 45 m 7,338 ft / 2,237 m 343.55° / 339.39° ASPHALT 676 ft / 206 m 318 ft / 97 m PREC-APP EDGE THRESHOLD

LGKR

Details ICAO LGKR (CFU)
Name IOANNIS KAPODISTRIAS INTL
Region Greece
Timezone Europe/Athens (UTC+3.0)
Stats Elevation 0 ft / 0 m (AMSL)
Location 39.602300° 19.912000°
Runways 1
Magnetic Variation 4.182° E

METAR

LGKR 170920Z 15004KT CAVOK 25/19 Q1017 NOSIG

Decode

TAF

TAF LGKR 170500Z 1706/1806 VRB05KT 9999 FEW025

Decode

Destination Runways

ID Width Length Bearing (true/mag) Surface Threshold Overrun Markings Lighting
17 148 ft / 45 m 7,604 ft / 2,318 m 168.78° / 164.60° ASPHALT 1,342 ft / 409 m 0 ft / 0 m PREC-APP EDGE THRESHOLD ALSF-I
35 148 ft / 45 m 7,604 ft / 2,318 m 348.79° / 344.60° ASPHALT 0 ft / 0 m 0 ft / 0 m PREC-APP EDGE THRESHOLD SALS REIL-OMNI

Popular Alternatives